23 maja 2022

Czas Kod Pogoda Temp. Widoczność Chmury Wiatr METAR/SPECI
10:00
M
16 °C 10 km+ 1.600 ft 230°   230° 14 kt METAR LFBG 230800Z AUTO 23014KT 9999 OVC016/// //////TCU 16/15 Q1008 TEMPO 4000 SHRA BKN006 OVC015
09:30
M
16 °C 10 km+ 1.500 ft 250°   250° 17 kt METAR LFBG 230730Z AUTO 25017KT 9999 SCT006/// SCT010/// OVC015/// //////CB 16/15 Q1007 TEMPO 4000 SHRA BKN006 OVC015
09:00
I
16 °C 4,7 km 800 ft 250°   250° 19 30 kt METAR LFBG 230700Z AUTO 25019G30KT 4700 -RA BR BKN008/// BKN022/// BKN064/// //////CB 16/15 Q1007 TEMPO 2000 TSRA BKN050TCU BECMG 23015KT
08:30
I
16 °C 3,8 km 700 ft 240°   240° 19 kt METAR LFBG 230630Z AUTO 24019KT 3800 RA BR VCTS BKN007/// BKN074/// OVC092/// ///CB 16/15 Q1006 TEMPO 23015G25KT 2000 TSRA BKN050TCU
08:00
I
17 °C 10 km+ 800 ft 220°   220° 14 kt METAR LFBG 230600Z AUTO 22014KT 9999 -RA BKN008/// OVC022/// //////CB 17/16 Q1006 TEMPO 23015G25KT 2000 TSRA BKN050CB
07:30
I
17 °C 4,1 km 700 ft 220°   220° 14 kt METAR LFBG 230530Z AUTO 22014KT 4100 -RADZ BR BKN007/// OVC013/// //////CB 17/16 Q1006 TEMPO 23015G25KT 2000 TSRA BKN050CB
07:00
I
17 °C 10 km+ 900 ft 220°   220° 12 kt METAR LFBG 230500Z AUTO 22012KT 9999 OVC009/// ///TCU 17/16 Q1006
06:30
M
18 °C 10 km+ 1.000 ft 210°   210° 10 kt METAR LFBG 230430Z AUTO 21010KT 9999 BKN010 OVC014 18/16 Q1006
06:00
M
18 °C 10 km+ 1.400 ft 210°   210° 9 kt METAR LFBG 230400Z AUTO 21009KT 9999 BKN014 OVC020 18/16 Q1006
05:30
M
18 °C 10 km+ 1.200 ft 220°   220° 10 kt METAR LFBG 230330Z AUTO 22010KT 9999 BKN012 OVC019 18/16 Q1006
05:00
M
18 °C 10 km+ 1.300 ft 210°   210° 12 kt METAR LFBG 230300Z AUTO 21012KT 9999 BKN013 OVC019 18/16 Q1007
04:30
M
18 °C 10 km+ 1.100 ft 220°   220° 12 kt METAR LFBG 230230Z AUTO 22012KT 9999 OVC011 18/16 Q1007
04:00
M
18 °C 10 km+ 1.000 ft 230°   230° 14 kt METAR LFBG 230200Z AUTO 23014KT 9999 BKN010 OVC130 18/17 Q1006
03:30
M
18 °C 10 km+ 1.000 ft 260°   260° 12 kt METAR LFBG 230130Z AUTO 26012KT 9999 DZ BKN010/// BKN045/// BKN054/// ///TCU 18/17 Q1005
03:00
M
18 °C 10 km+ 1.000 ft 220°   220° 10 kt METAR LFBG 230100Z AUTO 22010KT 9999 BKN010/// ///CB 18/17 Q1006
02:30
M
19 °C 10 km+ 1.000 ft 230°   230° 11 kt METAR LFBG 230030Z AUTO 23011KT 9999 BKN010/// OVC016/// ///TCU 19/17 Q1007
02:00
V
19 °C 10 km+ - 240°   240° 9 kt METAR LFBG 230000Z AUTO 24009KT 200V260 9999 FEW017/// SCT110/// ///CB 19/17 Q1007
01:30
V
19 °C 10 km+ - 220°   220° 7 kt METAR LFBG 222330Z AUTO 22007KT 9999 //////CB 19/17 Q1007
01:00
V
19 °C 10 km+ - 220°   220° 10 kt METAR LFBG 222300Z AUTO 22010KT 9999 //////TCU 19/17 Q1007
00:30
M
19 °C 7 km 10.000 ft 250°   250° 18 kt METAR LFBG 222230Z AUTO 25018KT 7000 -TSRA SCT017/// SCT056/// BKN100/// ///CB 19/17 Q1008
00:00
M
21 °C 10 km+ 2.000 ft 220°   220° 18 28 kt METAR LFBG 222200Z AUTO 22018G28KT 200V260 9999 VCTS BKN020/// BKN080/// BKN110/// //////CB 21/17 Q1008

22 maja 2022

Czas Kod Pogoda Temp. Widoczność Chmury Wiatr METAR/SPECI
23:30
V
22 °C 10 km+ - 220°   220° 14 kt METAR LFBG 222130Z AUTO 22014KT 9999 TS ///CB 22/17 Q1007
23:00
V
23 °C 10 km+ - 220°   220° 7 kt METAR LFBG 222100Z AUTO 22007KT 9999 //////CB 23/18 Q1006
22:30
V
24 °C 10 km+ - 210°   210° 3 kt METAR LFBG 222030Z AUTO 21003KT 9999 TS //////CB 24/19 Q1006
22:00
V
24 °C 10 km+ - 240°   240° 10 kt METAR LFBG 222000Z AUTO 24010KT 9999 //////CB 24/19 Q1006 TEMPO 19020G40KT 3000 TSRAGR
21:30
V
26 °C 10 km+ - 250°   250° 11 kt METAR LFBG 221930Z AUTO 25011KT 9999 VCTS ///CB 26/19 Q1005 TEMPO 19020G40KT 3000 TSRAGR
21:00
V
27 °C 10 km+ - 250°   250° 7 kt METAR LFBG 221900Z AUTO 25007KT 9999 //////CB 27/19 Q1006 TEMPO 19020G40KT 3000 TSRAGR
20:30
V
28 °C 10 km+ - 270°   270° 9 kt METAR LFBG 221830Z AUTO 27009KT CAVOK 28/19 Q1005 TEMPO 19020G40KT 3000 TSRAGR SCT040CB
20:00
V
29 °C 10 km+ - 240°   240° 11 kt METAR LFBG 221800Z AUTO 24011KT CAVOK 29/19 Q1005 TEMPO 19020G40KT 3000 TSRAGR SCT040CB
19:30
V
31 °C 10 km+ - 220°   220° 10 kt METAR LFBG 221730Z AUTO 22010KT CAVOK 31/19 Q1005 TEMPO 19020G40KT 3000 TSRAGR SCT040CB
19:00
V
32 °C 10 km+ - 210°   210° 10 kt METAR LFBG 221700Z AUTO 21010KT CAVOK 32/19 Q1005 TEMPO 19020G40KT 3000 TSRAGR SCT040CB
18:30
V
32 °C 10 km+ - 190°   190° 9 kt METAR LFBG 221630Z AUTO 19009KT CAVOK 32/19 Q1005 TEMPO 19020G40KT 3000 TSRAGR SCT040CB
18:00
V
32 °C 10 km+ - 170°   170° 10 kt METAR LFBG 221600Z AUTO 17010KT CAVOK 32/18 Q1006 TEMPO 19020G40KT 3000 TSRAGR SCT040CB
17:30
V
32 °C 10 km+ - 170°   170° 10 kt METAR LFBG 221530Z AUTO 17010KT CAVOK 32/17 Q1006 TEMPO 19020G40KT 3000 TSRAGR SCT040CB
17:00
V
32 °C 10 km+ - 160°   160° 10 kt METAR LFBG 221500Z AUTO 16010KT 120V200 CAVOK 32/19 Q1006 TEMPO 19020G40KT 3000 TSRAGR SCT040CB
16:30
V
32 °C 10 km+ - 140°   140° 7 kt METAR LFBG 221430Z AUTO 14007KT 110V190 CAVOK 32/19 Q1006 TEMPO 19020G40KT 3000 TSRAGR SCT040CB
16:00
V
33 °C 10 km+ - 140°   140° 8 kt METAR LFBG 221400Z AUTO 14008KT 110V170 9999 FEW003 33/19 Q1006 NOSIG
15:30
V
32 °C 10 km+ - 130°   130° 9 kt METAR LFBG 221330Z AUTO 13009KT 090V160 CAVOK 32/19 Q1007 NOSIG
15:00
V
31 °C 10 km+ - 130°   130° 7 kt METAR LFBG 221300Z AUTO 13007KT 100V160 CAVOK 31/20 Q1008 NOSIG
14:30
V
30 °C 10 km+ 16.000 ft 130°   130° 6 kt METAR LFBG 221230Z AUTO 13006KT 090V170 9999 FEW033 BKN160 30/19 Q1008 NOSIG
14:00
V
28 °C 10 km+ - 090°   090° 6 kt METAR LFBG 221200Z AUTO 09006KT 060V120 CAVOK 28/19 Q1009 NOSIG
13:30
V
27 °C 10 km+ - 110°   110° 4 kt METAR LFBG 221130Z AUTO 11004KT 070V160 9999 ///TCU 27/17 Q1009 BECMG NSC
13:00
V
26 °C 10 km+ - 080°   080° 5 kt METAR LFBG 221100Z AUTO 08005KT 030V130 CAVOK 26/17 Q1010 NOSIG
12:30
V
26 °C 10 km+ - 080°   080° 6 kt METAR LFBG 221030Z AUTO 08006KT 050V120 CAVOK 26/17 Q1010 NOSIG
12:00
V
26 °C 10 km+ 14.000 ft 040°   040° 6 kt METAR LFBG 221000Z AUTO 04006KT 360V080 9999 FEW008/// BKN140/// BKN220/// //////CB 26/16 Q1010 BECMG NSC
11:30
V
26 °C 10 km+ - 310°   310° 6 kt METAR LFBG 220930Z AUTO 31006KT 270V350 CAVOK 26/17 Q1011 NOSIG
11:00
V
25 °C 10 km+ - 340°   340° 4 kt METAR LFBG 220900Z AUTO 34004KT 290V050 CAVOK 25/16 Q1010 NOSIG
10:30
V
23 °C 10 km+ - 330°   330° 5 kt METAR LFBG 220830Z AUTO 33005KT 300V360 CAVOK 23/15 Q1011 NOSIG
10:00
V
22 °C 10 km+ - 120°   120° 7 kt METAR LFBG 220800Z AUTO 12007KT 080V210 CAVOK 22/15 Q1011 NOSIG
09:30
V
21 °C 10 km+ - 100°   100° 13 kt METAR LFBG 220730Z AUTO 10013KT CAVOK 21/14 Q1010 NOSIG
09:00
V
21 °C 10 km+ - 070°   070° 11 kt METAR LFBG 220700Z AUTO 07011KT CAVOK 21/14 Q1010 NOSIG
08:30
V
20 °C 10 km+ - 080°   080° 3 kt METAR LFBG 220630Z AUTO 08003KT 050V120 CAVOK 20/14 Q1012 NOSIG
08:00
V
20 °C 10 km+ - Var   Var 3 kt METAR LFBG 220600Z AUTO VRB03KT CAVOK 20/13 Q1012 NOSIG
07:30
V
20 °C 10 km+ - 040°   040° 9 kt METAR LFBG 220530Z AUTO 04009KT CAVOK 20/13 Q1012 NOSIG
07:00
V
20 °C 10 km+ - 040°   040° 5 kt METAR LFBG 220500Z AUTO 04005KT CAVOK 20/13 Q1013 TEMPO 05020G30KT
06:30
V
21 °C 10 km+ - Var   Var 2 kt METAR LFBG 220430Z AUTO VRB02KT CAVOK 21/13 Q1013 TEMPO 05020G30KT
06:00
V
21 °C 10 km+ - 020°   020° 4 kt METAR LFBG 220400Z AUTO 02004KT CAVOK 21/13 Q1013 TEMPO 05020G30KT
05:30
V
21 °C 10 km+ - 010°   010° 3 kt METAR LFBG 220330Z AUTO 01003KT CAVOK 21/13 Q1013 TEMPO 05020G30KT
05:00
V
21 °C 10 km+ - 010°   010° 3 kt METAR LFBG 220300Z AUTO 01003KT CAVOK 21/13 Q1013 TEMPO 05020G30KT
04:30
V
21 °C 10 km+ - 040°   040° 2 kt METAR LFBG 220230Z AUTO 04002KT CAVOK 21/13 Q1013 TEMPO 05020G30KT
04:00
V
22 °C 10 km+ - 020°   020° 5 kt METAR LFBG 220200Z AUTO 02005KT CAVOK 22/13 Q1013 NOSIG
03:30
V
22 °C 10 km+ - 030°   030° 5 kt METAR LFBG 220130Z AUTO 03005KT CAVOK 22/13 Q1013 NOSIG
03:00
V
22 °C 10 km+ - 360°   360° 5 kt METAR LFBG 220100Z AUTO 36005KT CAVOK 22/13 Q1013 NOSIG
02:30
V
23 °C 10 km+ - 020°   020° 6 kt METAR LFBG 220030Z AUTO 02006KT CAVOK 23/14 Q1013 NOSIG
02:00
V
24 °C 10 km+ - 020°   020° 5 kt METAR LFBG 220000Z AUTO 02005KT CAVOK 24/14 Q1014 NOSIG
01:30
V
24 °C 10 km+ - 010°   010° 3 kt METAR LFBG 212330Z AUTO 01003KT CAVOK 24/15 Q1014 NOSIG
01:00
V
24 °C 10 km+ - 040°   040° 3 kt METAR LFBG 212300Z AUTO 04003KT CAVOK 24/15 Q1014 NOSIG
00:30
V
25 °C 10 km+ - 060°   060° 6 kt METAR LFBG 212230Z AUTO 06006KT CAVOK 25/15 Q1014 NOSIG
00:00
V
25 °C 10 km+ - 070°   070° 6 kt METAR LFBG 212200Z AUTO 07006KT CAVOK 25/15 Q1014 NOSIG

21 maja 2022

Czas Kod Pogoda Temp. Widoczność Chmury Wiatr METAR/SPECI
23:30
V
25 °C 10 km+ - 050°   050° 6 kt METAR LFBG 212130Z AUTO 05006KT CAVOK 25/16 Q1015 NOSIG
23:00
V
26 °C 10 km+ - 040°   040° 9 kt METAR LFBG 212100Z AUTO 04009KT CAVOK 26/16 Q1015 NOSIG
22:30
V
27 °C 10 km+ - 020°   020° 8 kt METAR LFBG 212030Z AUTO 02008KT CAVOK 27/17 Q1015 NOSIG
22:00
V
27 °C 10 km+ - 010°   010° 6 kt METAR LFBG 212000Z AUTO 01006KT CAVOK 27/17 Q1015 NOSIG
21:30
V
28 °C 10 km+ - 010°   010° 5 kt METAR LFBG 211930Z AUTO 01005KT CAVOK 28/17 Q1015 NOSIG
21:00
V
29 °C 10 km+ - 030°   030° 4 kt METAR LFBG 211900Z AUTO 03004KT CAVOK 29/17 Q1015 NOSIG
20:30
V
29 °C 10 km+ - 030°   030° 4 kt METAR LFBG 211830Z AUTO 03004KT CAVOK 29/17 Q1015 NOSIG
20:00
V
30 °C 10 km+ - 030°   030° 8 kt METAR LFBG 211800Z AUTO 03008KT CAVOK 30/17 Q1014 NOSIG
19:30
V
30 °C 10 km+ - 080°   080° 4 kt METAR LFBG 211730Z AUTO 08004KT CAVOK 30/16 Q1015 NOSIG
19:00
V
31 °C 10 km+ - Var   Var 3 kt METAR LFBG 211700Z AUTO VRB03KT CAVOK 31/16 Q1015 NOSIG
18:30
V
32 °C 10 km+ - Var   Var 2 kt METAR LFBG 211630Z AUTO VRB02KT CAVOK 32/16 Q1016 NOSIG
18:00
V
31 °C 10 km+ - 120°   120° 7 kt METAR LFBG 211600Z AUTO 12007KT CAVOK 31/16 Q1015 NOSIG
17:30
V
31 °C 10 km+ - 090°   090° 6 kt METAR LFBG 211530Z AUTO 09006KT 060V120 CAVOK 31/17 Q1016 NOSIG
17:00
V
31 °C 10 km+ - Var   Var 4 kt METAR LFBG 211500Z AUTO VRB04KT CAVOK 31/17 Q1016 NOSIG
16:30
V
31 °C 10 km+ - 040°   040° 4 kt METAR LFBG 211430Z AUTO 04004KT 350V160 CAVOK 31/16 Q1017 NOSIG
16:00
V
31 °C 10 km+ - 020°   020° 4 kt METAR LFBG 211400Z AUTO 02004KT 300V090 CAVOK 31/16 Q1017 NOSIG
15:30
V
30 °C 10 km+ - Var   Var 5 kt METAR LFBG 211330Z AUTO VRB05KT 9999 FEW003 30/17 Q1018 NOSIG
15:00
V
30 °C 10 km+ - 050°   050° 5 kt METAR LFBG 211300Z AUTO 05005KT 320V130 CAVOK 30/17 Q1018 NOSIG
14:30
V
29 °C 10 km+ - 060°   060° 5 kt METAR LFBG 211230Z AUTO 06005KT 020V140 CAVOK 29/16 Q1018 NOSIG
14:00
V
28 °C 10 km+ - 080°   080° 4 kt METAR LFBG 211200Z AUTO 08004KT 360V140 CAVOK 28/16 Q1018 NOSIG
13:30
V
28 °C 10 km+ - 070°   070° 4 kt METAR LFBG 211130Z AUTO 07004KT 330V120 CAVOK 28/16 Q1019 NOSIG
13:00
V
28 °C 10 km+ - 070°   070° 5 kt METAR LFBG 211100Z AUTO 07005KT 040V100 CAVOK 28/16 Q1019 NOSIG
12:30
V
27 °C 10 km+ - 060°   060° 6 kt METAR LFBG 211030Z AUTO 06006KT 360V100 CAVOK 27/16 Q1019 NOSIG
12:00
V
26 °C 10 km+ - 060°   060° 5 kt METAR LFBG 211000Z AUTO 06005KT 010V140 CAVOK 26/16 Q1020 NOSIG
11:30
V
25 °C 10 km+ - 030°   030° 5 kt METAR LFBG 210930Z AUTO 03005KT 340V080 CAVOK 25/16 Q1020 NOSIG
11:00
V
24 °C 10 km+ - 040°   040° 4 kt METAR LFBG 210900Z AUTO 04004KT 350V100 CAVOK 24/16 Q1020 NOSIG
10:30
V
23 °C 10 km+ - 360°   360° 3 kt METAR LFBG 210830Z AUTO 36003KT 310V060 CAVOK 23/16 Q1021 NOSIG
10:00
V
21 °C 10 km+ - 050°   050° 4 kt METAR LFBG 210800Z AUTO 05004KT 020V120 CAVOK 21/15 Q1021 NOSIG
09:30
V
20 °C 10 km+ - 060°   060° 4 kt METAR LFBG 210730Z AUTO 06004KT 030V110 CAVOK 20/14 Q1021 NOSIG
09:00
V
18 °C 10 km+ - 060°   060° 3 kt METAR LFBG 210700Z AUTO 06003KT 020V090 CAVOK 18/14 Q1021 NOSIG
Starsze dane

Pobierz naszą aplikację

Łatwy dostęp do całej pogody lotniczej na telefonie komórkowym i tablecie.
Z wieloma funkcjami niedostępnymi na stronie internetowej, takimi jak wsparcie offline i osobista lista lotnisk.

My i osoby trzecie śledzimy twoje zachowanie w internecie na naszej stronie za pomocą plików cookie. Jeśli kontynuujesz, zakładamy, że zgadzasz się z naszą polityką plików cookie. Dowiedz się więcej